Time;durP1;ratioP1;P1;durP2;ratioP2;P2;SDS_P1;SDS_P2;PMS_P1;PMS_P2;Temp;Humidity;BMP_temperature;BMP_pressure;BME280_temperature;BME280_humidity;BME280_pressure;Samples;Min_cycle;Max_cycle;Signal;HPM_P1;HPM_P2
2023/01/31 00:00:25;;;;;;;9.15;4.95;;;5.20;70.40;;;;;;5007911;28;20069;-63
2023/01/31 00:02:51;;;;;;;12.07;4.25;;;5.20;70.40;;;;;;5005850;28;20022;-63
2023/01/31 00:05:18;;;;;;;10.65;4.32;;;5.20;70.20;;;;;;4981261;28;20119;-64
2023/01/31 00:07:45;;;;;;;7.90;4.07;;;5.20;70.20;;;;;;4999136;28;20030;-64
2023/01/31 00:10:11;;;;;;;10.88;4.78;;;5.30;70.30;;;;;;5002598;28;20117;-64
2023/01/31 00:12:36;;;;;;;10.77;4.55;;;5.20;70.20;;;;;;4998649;28;20026;-64
2023/01/31 00:15:02;;;;;;;9.52;4.25;;;5.20;70.20;;;;;;5002624;28;20090;-63
2023/01/31 00:17:28;;;;;;;9.27;4.90;;;5.20;70.20;;;;;;4991681;28;20066;-64
2023/01/31 00:19:53;;;;;;;9.60;4.38;;;5.20;70.10;;;;;;4998818;28;20383;-64
2023/01/31 00:22:19;;;;;;;11.38;4.47;;;5.20;70.10;;;;;;5002354;28;20030;-63
2023/01/31 00:24:45;;;;;;;10.68;4.05;;;5.20;70.10;;;;;;5001949;28;20041;-64
2023/01/31 00:27:10;;;;;;;9.38;4.25;;;5.20;70.20;;;;;;5006100;28;20022;-65
2023/01/31 00:29:36;;;;;;;9.55;4.63;;;5.10;70.10;;;;;;5004350;28;20039;-63
2023/01/31 00:32:02;;;;;;;12.25;4.57;;;5.10;70.10;;;;;;5001564;28;20526;-64
2023/01/31 00:34:28;;;;;;;13.05;4.68;;;5.10;70.10;;;;;;5010843;28;20085;-63
2023/01/31 00:36:54;;;;;;;10.63;4.85;;;5.10;70.30;;;;;;5007446;28;20076;-63
2023/01/31 00:39:19;;;;;;;16.95;5.13;;;5.00;70.20;;;;;;4988946;28;20061;-63
2023/01/31 00:41:45;;;;;;;12.65;4.78;;;5.00;70.20;;;;;;4986461;28;20030;-63
2023/01/31 00:44:11;;;;;;;10.73;4.35;;;5.00;70.30;;;;;;4988132;28;20313;-63
2023/01/31 00:46:36;;;;;;;8.45;4.28;;;5.00;70.20;;;;;;4984733;28;20018;-64
2023/01/31 00:49:02;;;;;;;12.05;4.90;;;5.00;70.30;;;;;;4990924;28;20045;-63
2023/01/31 00:51:27;;;;;;;10.38;5.07;;;5.00;70.30;;;;;;4983452;28;20042;-64
2023/01/31 00:53:54;;;;;;;8.35;4.43;;;4.90;70.30;;;;;;4980066;28;20482;-63
2023/01/31 00:56:22;;;;;;;7.40;4.40;;;4.90;70.40;;;;;;4986584;28;20023;-63
2023/01/31 00:58:49;;;;;;;7.82;4.07;;;4.90;70.50;;;;;;4987851;28;20094;-64
2023/01/31 01:01:26;;;;;;;11.02;3.92;;;4.90;70.50;;;;;;4985149;28;20035;-64
2023/01/31 01:03:52;;;;;;;14.13;4.40;;;4.90;70.50;;;;;;4984295;28;20034;-63
2023/01/31 01:06:18;;;;;;;9.82;4.30;;;4.80;70.20;;;;;;4963654;28;20134;-64
2023/01/31 01:08:45;;;;;;;10.32;4.30;;;4.80;70.30;;;;;;4963531;28;20031;-63
2023/01/31 01:11:13;;;;;;;9.68;4.38;;;4.80;70.40;;;;;;4983519;28;20109;-63
2023/01/31 01:13:40;;;;;;;10.38;4.50;;;4.80;70.50;;;;;;4985824;28;20076;-64
2023/01/31 01:16:12;;;;;;;11.65;4.55;;;4.80;70.50;;;;;;4966691;28;20109;-63
2023/01/31 01:18:39;;;;;;;13.23;4.45;;;4.80;70.60;;;;;;4987996;28;20456;-63
2023/01/31 01:21:14;;;;;;;10.10;3.95;;;4.70;70.50;;;;;;4981925;28;20110;-64
2023/01/31 01:23:40;;;;;;;8.80;4.55;;;4.70;70.50;;;;;;4986666;28;20023;-63
2023/01/31 01:26:15;;;;;;;11.98;4.38;;;4.70;70.50;;;;;;4979759;28;20026;-62
2023/01/31 01:28:41;;;;;;;10.00;4.35;;;4.70;70.70;;;;;;4979056;28;20042;-63
2023/01/31 01:31:09;;;;;;;10.30;4.60;;;4.70;70.70;;;;;;4979541;28;20123;-63
2023/01/31 01:33:35;;;;;;;6.82;3.92;;;4.70;70.60;;;;;;4984135;28;20030;-62
2023/01/31 01:36:06;;;;;;;6.72;3.78;;;4.60;70.60;;;;;;4991329;28;20030;-63
2023/01/31 01:38:36;;;;;;;13.02;4.97;;;4.60;70.40;;;;;;4984524;28;20046;-63
2023/01/31 01:41:03;;;;;;;9.95;4.38;;;4.60;70.70;;;;;;5000643;28;20612;-62
2023/01/31 01:43:43;;;;;;;9.25;4.95;;;4.60;70.50;;;;;;4986164;28;20088;-64
2023/01/31 01:46:16;;;;;;;10.68;4.20;;;4.60;70.70;;;;;;5003892;28;20044;-62
2023/01/31 01:48:45;;;;;;;7.93;3.90;;;4.60;70.50;;;;;;5004208;28;20733;-62
2023/01/31 01:51:13;;;;;;;9.00;3.90;;;4.60;70.60;;;;;;5013816;28;20026;-64
2023/01/31 01:53:41;;;;;;;10.38;4.28;;;4.60;70.50;;;;;;4999455;28;20029;-62
2023/01/31 01:56:11;;;;;;;11.23;4.03;;;4.50;70.70;;;;;;5005172;28;20057;-62
2023/01/31 01:58:57;;;;;;;7.18;4.18;;;4.50;70.70;;;;;;5000479;28;20947;-63
2023/01/31 02:01:25;;;;;;;11.02;4.65;;;4.50;70.70;;;;;;4989302;28;20042;-63
2023/01/31 02:03:53;;;;;;;7.10;3.97;;;4.50;70.70;;;;;;5004680;28;20042;-64
2023/01/31 02:06:19;;;;;;;10.35;4.25;;;4.50;70.70;;;;;;5001701;28;20049;-62
2023/01/31 02:08:45;;;;;;;7.25;3.75;;;4.50;70.70;;;;;;4999384;28;20042;-62
2023/01/31 02:11:23;;;;;;;7.65;4.28;;;4.50;70.70;;;;;;5002040;28;20469;-64
2023/01/31 02:13:53;;;;;;;8.13;4.20;;;4.50;70.70;;;;;;4994538;28;20031;-61
2023/01/31 02:16:19;;;;;;;8.15;3.65;;;4.50;70.70;;;;;;4999168;28;20148;-65
2023/01/31 02:18:46;;;;;;;9.43;4.30;;;4.50;70.70;;;;;;4913912;28;20178;-64
2023/01/31 02:21:18;;;;;;;9.95;4.13;;;4.50;70.90;;;;;;4999519;28;20037;-64
2023/01/31 02:24:07;;;;;;;9.73;3.80;;;4.50;70.90;;;;;;4998502;28;20026;-64
2023/01/31 02:27:05;;;;;;;9.68;3.88;;;4.50;70.70;;;;;;5001249;28;20029;-64
2023/01/31 02:29:52;;;;;;;10.60;4.50;;;4.40;70.70;;;;;;5007774;28;20042;-63
2023/01/31 02:32:32;;;;;;;13.10;4.20;;;4.40;70.60;;;;;;4999069;28;20031;-64
2023/01/31 02:35:19;;;;;;;9.32;3.63;;;4.40;70.60;;;;;;5000663;28;20038;-64
2023/01/31 02:38:12;;;;;;;12.55;3.70;;;4.40;70.80;;;;;;4998368;28;20062;-64
2023/01/31 02:40:41;;;;;;;15.57;5.13;;;4.40;70.60;;;;;;5004376;28;20035;-65
2023/01/31 02:43:21;;;;;;;12.82;4.88;;;4.30;71.00;;;;;;4996479;28;20019;-63
2023/01/31 02:46:13;;;;;;;12.48;4.07;;;4.30;70.60;;;;;;4997593;28;20026;-62
2023/01/31 02:48:54;;;;;;;19.00;4.65;;;4.30;70.60;;;;;;4991338;28;20073;-62
2023/01/31 02:51:32;;;;;;;11.05;4.45;;;4.30;70.70;;;;;;5003193;28;20032;-62
2023/01/31 02:54:12;;;;;;;19.52;5.80;;;4.30;70.70;;;;;;4997409;28;20032;-64
2023/01/31 02:56:41;;;;;;;11.15;4.25;;;4.30;70.80;;;;;;4999626;28;20490;-62
2023/01/31 02:59:13;;;;;;;9.95;4.25;;;4.30;70.70;;;;;;5003462;28;20091;-64
2023/01/31 03:01:46;;;;;;;12.57;4.00;;;4.30;70.80;;;;;;5005887;28;20426;-63
2023/01/31 03:04:13;;;;;;;10.32;4.20;;;4.30;70.80;;;;;;5002913;28;20063;-65
2023/01/31 03:06:53;;;;;;;10.15;4.03;;;4.30;70.80;;;;;;5003698;28;20030;-62
2023/01/31 03:09:47;;;;;;;8.85;4.10;;;4.20;70.70;;;;;;5002065;28;20041;-64
2023/01/31 03:12:41;;;;;;;8.27;3.08;;;4.30;70.80;;;;;;4995820;28;20102;-63
2023/01/31 03:15:18;;;;;;;9.52;4.05;;;4.30;70.70;;;;;;5003944;28;20112;-64
2023/01/31 03:17:46;;;;;;;17.23;5.40;;;4.30;70.70;;;;;;5001992;28;20061;-62
2023/01/31 03:20:36;;;;;;;12.25;5.57;;;4.20;70.70;;;;;;4899364;28;20030;-63
2023/01/31 03:23:30;;;;;;;15.98;5.80;;;4.20;70.80;;;;;;5001146;28;20036;-63
2023/01/31 03:25:59;;;;;;;18.27;5.43;;;4.20;70.90;;;;;;4999975;28;20034;-65
2023/01/31 03:28:29;;;;;;;12.05;5.15;;;4.20;70.90;;;;;;5009980;28;20434;-61
2023/01/31 03:31:06;;;;;;;7.85;4.00;;;4.20;71.00;;;;;;4997206;28;20023;-62
2023/01/31 03:33:36;;;;;;;11.70;4.25;;;4.20;71.10;;;;;;5001551;28;20030;-62
2023/01/31 03:36:12;;;;;;;8.80;3.88;;;4.20;71.40;;;;;;5001655;28;20066;-63
2023/01/31 03:38:49;;;;;;;13.35;4.05;;;4.20;71.10;;;;;;5001130;28;20398;-62
2023/01/31 03:41:27;;;;;;;12.10;4.32;;;4.20;71.10;;;;;;5001706;28;20122;-64
2023/01/31 03:44:02;;;;;;;9.35;4.57;;;4.20;71.20;;;;;;4991300;28;20044;-63
2023/01/31 03:46:35;;;;;;;12.95;4.85;;;4.20;71.20;;;;;;4996358;28;20049;-64
2023/01/31 03:49:07;;;;;;;11.03;3.83;;;4.20;71.20;;;;;;4997546;28;20093;-64
2023/01/31 03:51:38;;;;;;;10.68;4.05;;;4.20;71.20;;;;;;5002870;28;20277;-64
2023/01/31 03:54:13;;;;;;;10.93;4.05;;;4.20;71.10;;;;;;5001373;28;21435;-64
2023/01/31 03:57:03;;;;;;;12.15;4.22;;;4.30;71.30;;;;;;5002334;28;20057;-63
2023/01/31 03:59:36;;;;;;;15.18;3.80;;;4.30;71.50;;;;;;4999883;28;20026;-64
2023/01/31 04:02:04;;;;;;;8.07;3.35;;;4.30;71.30;;;;;;5009129;28;20024;-65
2023/01/31 04:04:41;;;;;;;14.80;4.40;;;4.30;71.30;;;;;;5002904;28;20022;-65
2023/01/31 04:07:06;;;;;;;11.48;4.55;;;4.30;71.50;;;;;;5007167;28;20034;-63
2023/01/31 04:09:33;;;;;;;12.43;4.53;;;4.30;71.50;;;;;;5011299;28;20040;-62
2023/01/31 04:12:00;;;;;;;10.90;3.92;;;4.30;71.50;;;;;;5005727;28;20026;-63
2023/01/31 04:14:27;;;;;;;6.35;3.78;;;4.30;71.40;;;;;;5003679;28;20025;-62
2023/01/31 04:16:52;;;;;;;13.32;4.75;;;4.30;71.30;;;;;;5003350;28;20139;-63
2023/01/31 04:19:18;;;;;;;12.63;4.80;;;4.30;71.30;;;;;;4911569;28;20025;-62
2023/01/31 04:21:44;;;;;;;14.85;4.50;;;4.30;71.30;;;;;;5005667;28;20034;-63
2023/01/31 04:24:09;;;;;;;7.57;4.03;;;4.30;71.30;;;;;;5008547;28;20029;-65
2023/01/31 04:26:36;;;;;;;15.32;4.10;;;4.30;71.30;;;;;;5000169;28;20065;-64
2023/01/31 04:29:02;;;;;;;15.30;4.47;;;4.30;71.30;;;;;;4988880;28;20042;-65
2023/01/31 04:31:27;;;;;;;9.75;4.05;;;4.30;71.30;;;;;;5008480;28;20030;-65
2023/01/31 04:33:53;;;;;;;11.18;4.00;;;4.30;71.30;;;;;;5002786;28;20034;-65
2023/01/31 04:36:19;;;;;;;9.85;4.22;;;4.40;71.40;;;;;;5005071;28;20026;-65
2023/01/31 04:38:44;;;;;;;11.45;4.07;;;4.40;71.50;;;;;;5001983;28;20066;-64
2023/01/31 04:41:10;;;;;;;8.60;3.85;;;4.40;71.40;;;;;;4981620;28;20045;-65
2023/01/31 04:43:36;;;;;;;11.90;4.13;;;4.40;71.50;;;;;;4982793;28;20037;-65
2023/01/31 04:46:01;;;;;;;10.52;3.80;;;4.40;71.40;;;;;;4980699;28;20030;-66
2023/01/31 04:48:27;;;;;;;15.02;4.32;;;4.40;71.40;;;;;;4980297;28;20090;-63
2023/01/31 04:50:52;;;;;;;10.93;3.90;;;4.50;71.30;;;;;;4982459;28;20094;-64
2023/01/31 04:53:20;;;;;;;12.32;4.75;;;4.50;71.20;;;;;;4983886;28;20047;-64
2023/01/31 04:55:46;;;;;;;12.98;4.80;;;4.50;71.30;;;;;;4983229;28;20030;-64
2023/01/31 04:58:12;;;;;;;15.82;5.13;;;4.50;71.40;;;;;;4964899;28;20035;-64
2023/01/31 05:00:37;;;;;;;12.73;4.90;;;4.50;71.40;;;;;;4986293;28;20023;-63
2023/01/31 05:03:03;;;;;;;20.00;8.07;;;4.50;71.30;;;;;;4979203;28;20027;-65
2023/01/31 05:05:29;;;;;;;18.45;5.40;;;4.50;71.20;;;;;;4981891;28;20090;-64
2023/01/31 05:07:55;;;;;;;14.23;4.90;;;4.50;71.20;;;;;;4985910;28;20094;-64
2023/01/31 05:10:21;;;;;;;13.90;4.97;;;4.50;71.20;;;;;;4986118;28;20057;-64
2023/01/31 05:12:46;;;;;;;10.35;4.38;;;4.50;71.30;;;;;;4980804;28;20023;-64
2023/01/31 05:15:12;;;;;;;8.05;3.97;;;4.50;71.10;;;;;;4970738;28;20090;-64
2023/01/31 05:17:38;;;;;;;12.43;4.20;;;4.50;71.20;;;;;;4987377;28;20037;-62
2023/01/31 05:20:04;;;;;;;9.57;4.78;;;4.50;71.30;;;;;;4974977;28;20022;-62
2023/01/31 05:22:30;;;;;;;16.67;6.20;;;4.50;71.10;;;;;;4968146;28;20031;-63
2023/01/31 05:24:56;;;;;;;13.65;5.80;;;4.50;71.20;;;;;;4981824;28;20061;-63
2023/01/31 05:27:21;;;;;;;14.32;5.63;;;4.50;71.10;;;;;;4987520;28;20431;-63
2023/01/31 05:29:47;;;;;;;19.02;5.68;;;4.50;71.00;;;;;;4981856;28;20542;-63
2023/01/31 05:32:13;;;;;;;16.35;5.68;;;4.50;70.90;;;;;;4980180;28;20106;-61
2023/01/31 05:34:39;;;;;;;12.30;5.40;;;4.50;70.80;;;;;;4965026;28;20387;-62
2023/01/31 05:37:05;;;;;;;11.77;4.75;;;4.50;70.80;;;;;;4979894;28;20031;-64
2023/01/31 05:39:31;;;;;;;12.57;4.82;;;4.50;70.80;;;;;;4961440;28;20051;-64
2023/01/31 05:41:57;;;;;;;17.90;5.50;;;4.40;70.60;;;;;;4985016;28;20027;-64
2023/01/31 05:44:23;;;;;;;12.55;5.63;;;4.40;70.80;;;;;;4986711;28;20029;-64
2023/01/31 05:46:49;;;;;;;16.05;5.45;;;4.40;70.80;;;;;;4984287;28;20042;-64
2023/01/31 05:49:14;;;;;;;11.98;5.55;;;4.30;70.80;;;;;;4981149;28;20030;-64
2023/01/31 05:51:40;;;;;;;14.00;6.85;;;4.30;70.80;;;;;;4985991;28;20058;-65
2023/01/31 05:54:06;;;;;;;19.55;6.93;;;4.30;70.70;;;;;;4970210;28;20034;-63
2023/01/31 05:56:32;;;;;;;17.60;6.60;;;4.30;70.70;;;;;;4963675;28;20111;-64
2023/01/31 05:58:58;;;;;;;20.70;8.13;;;4.30;70.80;;;;;;4989836;28;20030;-63
2023/01/31 06:01:26;;;;;;;13.38;6.63;;;4.30;70.80;;;;;;4985589;28;20031;-63
2023/01/31 06:03:52;;;;;;;16.10;6.90;;;4.40;70.90;;;;;;4981078;28;20027;-62
2023/01/31 06:06:18;;;;;;;16.38;7.32;;;4.20;70.70;;;;;;4984027;28;20665;-63
2023/01/31 06:08:44;;;;;;;18.25;6.63;;;4.20;70.70;;;;;;4982065;28;20165;-62
2023/01/31 06:11:11;;;;;;;15.60;6.63;;;4.20;70.70;;;;;;4984949;28;20035;-62
2023/01/31 06:13:38;;;;;;;15.63;7.47;;;4.20;70.60;;;;;;4980310;28;20025;-64
2023/01/31 06:16:04;;;;;;;10.80;5.90;;;4.10;70.50;;;;;;4979713;28;20114;-62
2023/01/31 06:18:30;;;;;;;18.27;9.13;;;4.10;70.40;;;;;;4980903;28;20023;-63
2023/01/31 06:20:56;;;;;;;25.75;9.98;;;4.10;70.40;;;;;;4966655;28;20044;-63
2023/01/31 06:23:21;;;;;;;17.70;8.88;;;4.00;70.40;;;;;;4985029;28;20026;-62
2023/01/31 06:25:51;;;;;;;24.65;8.52;;;4.00;70.40;;;;;;4983984;28;20025;-64
2023/01/31 06:28:18;;;;;;;20.70;8.65;;;3.90;70.30;;;;;;4976754;28;20043;-62
2023/01/31 06:30:44;;;;;;;20.75;9.07;;;3.90;70.30;;;;;;4983675;28;20018;-62
2023/01/31 06:33:11;;;;;;;19.73;7.72;;;3.80;70.20;;;;;;4981527;28;20037;-63
2023/01/31 06:35:37;;;;;;;17.83;7.80;;;3.80;70.30;;;;;;4974322;28;20031;-61
2023/01/31 06:38:04;;;;;;;12.55;5.43;;;3.70;70.30;;;;;;4982944;28;20061;-63
2023/01/31 06:40:30;;;;;;;9.85;4.35;;;3.70;70.40;;;;;;5007882;28;20097;-64
2023/01/31 06:42:56;;;;;;;10.77;4.03;;;3.60;70.40;;;;;;4996820;28;20035;-62
2023/01/31 06:45:22;;;;;;;10.75;4.28;;;3.60;70.40;;;;;;4996539;28;20030;-62
2023/01/31 06:47:48;;;;;;;12.70;4.25;;;3.60;70.60;;;;;;5000238;28;20090;-62
2023/01/31 06:50:14;;;;;;;10.38;4.28;;;3.60;70.60;;;;;;4998306;28;20129;-61
2023/01/31 06:52:40;;;;;;;7.85;3.67;;;3.60;70.60;;;;;;4998437;28;20121;-62
2023/01/31 06:55:06;;;;;;;11.95;3.95;;;3.60;70.60;;;;;;5001420;28;20082;-63
2023/01/31 06:57:31;;;;;;;14.30;4.00;;;3.50;70.60;;;;;;4982785;28;20031;-63
2023/01/31 06:59:57;;;;;;;12.60;4.57;;;3.60;70.60;;;;;;5004598;28;20029;-63
2023/01/31 07:02:23;;;;;;;11.38;4.72;;;3.50;70.50;;;;;;5002747;28;20033;-62
2023/01/31 07:04:49;;;;;;;14.88;4.43;;;3.60;70.40;;;;;;4999291;28;20030;-64
2023/01/31 07:07:15;;;;;;;14.15;4.60;;;3.50;70.30;;;;;;5010593;28;20115;-65
2023/01/31 07:09:41;;;;;;;11.20;5.30;;;3.50;70.30;;;;;;5003358;28;20038;-63
2023/01/31 07:12:07;;;;;;;13.05;5.22;;;3.50;70.30;;;;;;5002618;28;20038;-65
2023/01/31 07:14:32;;;;;;;14.88;5.50;;;3.50;70.40;;;;;;4977804;28;20029;-63
2023/01/31 07:16:58;;;;;;;12.80;5.90;;;3.50;70.40;;;;;;5001321;28;20601;-63
2023/01/31 07:19:24;;;;;;;18.30;6.95;;;3.50;70.40;;;;;;4999168;28;20030;-63
2023/01/31 07:21:49;;;;;;;20.15;6.47;;;3.50;70.40;;;;;;4997237;28;20030;-64
2023/01/31 07:24:15;;;;;;;15.30;5.32;;;3.50;70.40;;;;;;4995891;28;20094;-61
2023/01/31 07:26:41;;;;;;;8.90;4.03;;;3.40;70.30;;;;;;5005536;28;20090;-64
2023/01/31 07:29:07;;;;;;;11.60;4.40;;;3.60;70.40;;;;;;4999471;28;20094;-63
2023/01/31 07:31:33;;;;;;;14.23;4.55;;;3.50;70.20;;;;;;4995795;28;20068;-63
2023/01/31 07:33:59;;;;;;;11.43;4.43;;;3.50;70.20;;;;;;4999255;28;20031;-62
2023/01/31 07:36:25;;;;;;;10.23;3.90;;;3.50;70.10;;;;;;4994891;28;20050;-63
2023/01/31 07:38:55;;;;;;;11.98;4.18;;;3.50;70.10;;;;;;4999966;28;20046;-60
2023/01/31 07:41:21;;;;;;;11.10;4.30;;;3.50;70.10;;;;;;5006082;28;20018;-61
2023/01/31 07:43:47;;;;;;;15.20;5.10;;;3.50;70.20;;;;;;5001908;28;20026;-63
2023/01/31 07:46:12;;;;;;;13.45;3.78;;;3.50;70.20;;;;;;4992181;28;20019;-63
2023/01/31 07:48:38;;;;;;;10.98;3.65;;;3.50;70.30;;;;;;5000865;28;20073;-62
2023/01/31 07:51:04;;;;;;;17.20;4.57;;;3.50;70.30;;;;;;4986388;28;20034;-63
2023/01/31 07:53:33;;;;;;;9.85;4.15;;;3.50;70.50;;;;;;5004941;28;20077;-63
2023/01/31 07:56:16;;;;;;;11.80;3.65;;;3.60;70.70;;;;;;4998359;28;20045;-63
2023/01/31 07:58:43;;;;;;;11.90;3.95;;;3.70;70.90;;;;;;4999585;28;20034;-62
2023/01/31 08:04:07;;;;;;;14.23;4.50;;;3.80;70.70;;;;;;4997779;28;20072;-62
2023/01/31 08:06:33;;;;;;;13.52;4.32;;;3.90;70.70;;;;;;5006212;28;20513;-61
2023/01/31 08:09:00;;;;;;;13.05;5.18;;;3.90;70.70;;;;;;4999784;28;20046;-61
2023/01/31 08:11:26;;;;;;;17.50;4.88;;;4.00;70.80;;;;;;4974853;28;20037;-63
2023/01/31 08:13:52;;;;;;;14.52;5.13;;;4.10;70.80;;;;;;4983835;28;20014;-63
2023/01/31 08:16:19;;;;;;;12.73;4.68;;;4.10;70.70;;;;;;5001350;28;20023;-61
2023/01/31 08:18:44;;;;;;;12.18;4.40;;;4.20;70.60;;;;;;4904834;28;20391;-62
2023/01/31 08:21:11;;;;;;;15.85;4.68;;;4.30;70.50;;;;;;5011963;28;20022;-63
2023/01/31 08:23:39;;;;;;;11.43;5.15;;;4.30;70.40;;;;;;4996096;28;20034;-63
2023/01/31 08:26:09;;;;;;;11.18;4.30;;;4.30;70.30;;;;;;4996108;28;20030;-63
2023/01/31 08:28:35;;;;;;;11.25;4.47;;;4.40;70.40;;;;;;4990533;28;20065;-62
2023/01/31 08:31:01;;;;;;;9.05;4.25;;;4.50;70.40;;;;;;4977522;28;20026;-63
2023/01/31 08:33:26;;;;;;;16.23;5.55;;;4.50;70.30;;;;;;4979570;28;20039;-64
2023/01/31 08:35:52;;;;;;;10.27;4.40;;;4.60;70.30;;;;;;4995051;28;20030;-63
2023/01/31 08:38:18;;;;;;;10.57;4.28;;;4.60;70.20;;;;;;4998461;28;20042;-64
2023/01/31 08:40:43;;;;;;;13.90;4.25;;;4.70;70.00;;;;;;4997681;28;20018;-63
2023/01/31 08:43:09;;;;;;;15.48;3.85;;;4.70;70.10;;;;;;4998921;28;20041;-64
2023/01/31 08:45:35;;;;;;;19.17;4.45;;;4.80;70.00;;;;;;5003245;28;20022;-63
2023/01/31 08:48:01;;;;;;;11.52;4.65;;;4.80;70.00;;;;;;5004184;28;20033;-63
2023/01/31 08:50:29;;;;;;;14.50;5.03;;;4.90;70.00;;;;;;4994081;28;20072;-63
2023/01/31 08:52:58;;;;;;;10.98;4.03;;;5.00;69.80;;;;;;5004181;28;20022;-61
2023/01/31 08:55:24;;;;;;;13.48;4.20;;;5.10;69.50;;;;;;5000086;28;20030;-61
2023/01/31 08:57:51;;;;;;;10.57;3.83;;;5.10;69.30;;;;;;4998747;28;20033;-63
2023/01/31 09:00:18;;;;;;;12.75;4.22;;;5.10;69.10;;;;;;4977478;28;20062;-63
2023/01/31 09:02:45;;;;;;;13.75;4.47;;;5.10;69.00;;;;;;5000917;28;20085;-63
2023/01/31 09:05:11;;;;;;;15.35;4.35;;;5.10;69.00;;;;;;5010368;28;20022;-62
2023/01/31 09:07:37;;;;;;;12.88;4.60;;;5.10;69.00;;;;;;4997948;28;20027;-63
2023/01/31 09:10:03;;;;;;;10.02;4.32;;;5.10;69.10;;;;;;5003025;28;20035;-63
2023/01/31 09:12:29;;;;;;;17.63;4.32;;;5.10;69.20;;;;;;4995631;28;20026;-63
2023/01/31 09:14:55;;;;;;;12.70;4.15;;;5.20;69.10;;;;;;5000426;28;20038;-63
2023/01/31 09:17:20;;;;;;;11.50;4.43;;;5.20;69.10;;;;;;5002322;28;20025;-63
2023/01/31 09:19:47;;;;;;;14.18;4.32;;;5.20;68.90;;;;;;5004332;28;20044;-63
2023/01/31 09:22:13;;;;;;;10.93;4.38;;;5.20;68.90;;;;;;4985949;28;20034;-64
2023/01/31 09:24:39;;;;;;;14.32;4.28;;;5.30;68.90;;;;;;4997880;28;20042;-62
2023/01/31 09:27:04;;;;;;;15.05;4.95;;;5.30;68.80;;;;;;5005260;28;20026;-61
2023/01/31 09:29:30;;;;;;;14.45;3.88;;;5.30;68.80;;;;;;4998424;28;20034;-64
2023/01/31 09:31:56;;;;;;;15.52;4.15;;;5.30;68.70;;;;;;4999169;28;20422;-61
2023/01/31 09:34:22;;;;;;;15.25;4.38;;;5.40;68.80;;;;;;5004473;28;20026;-61
2023/01/31 09:36:48;;;;;;;12.45;3.67;;;5.40;68.80;;;;;;4999904;28;20037;-65
2023/01/31 09:39:13;;;;;;;12.50;4.00;;;5.40;68.80;;;;;;4999839;28;20047;-63
2023/01/31 09:41:50;;;;;;;13.60;3.55;;;5.40;68.80;;;;;;4977600;28;20031;-62
2023/01/31 09:44:26;;;;;;;10.10;3.80;;;5.50;68.70;;;;;;5005824;28;20050;-63
2023/01/31 09:47:42;;;;;;;11.73;3.70;;;5.50;68.60;;;;;;4998671;28;20138;-63
2023/01/31 09:50:33;;;;;;;10.23;3.45;;;5.50;68.40;;;;;;4945169;29;20065;-61
2023/01/31 09:52:59;;;;;;;14.68;3.97;;;5.60;68.20;;;;;;4928324;29;20071;-62
2023/01/31 09:55:32;;;;;;;8.68;3.65;;;5.60;68.50;;;;;;4922926;29;20032;-62
2023/01/31 09:58:22;;;;;;;8.18;4.03;;;5.60;68.30;;;;;;4938814;29;20137;-62
2023/01/31 10:01:15;;;;;;;13.05;3.88;;;5.70;68.00;;;;;;4939006;29;20075;-63
2023/01/31 10:03:50;;;;;;;11.60;3.42;;;5.70;68.00;;;;;;4940188;29;20068;-63
2023/01/31 10:07:12;;;;;;;11.52;3.58;;;5.80;68.20;;;;;;4942320;29;20070;-61
2023/01/31 10:10:10;;;;;;;13.35;3.90;;;5.80;67.90;;;;;;4928223;29;20044;-63
2023/01/31 10:12:39;;;;;;;14.35;4.32;;;5.90;68.10;;;;;;4936569;29;20041;-63
2023/01/31 10:15:35;;;;;;;12.77;4.30;;;6.00;68.20;;;;;;4934535;29;20067;-61
2023/01/31 10:18:12;;;;;;;13.20;4.18;;;6.00;68.60;;;;;;4939379;29;20027;-62
2023/01/31 10:20:45;;;;;;;12.25;3.85;;;6.00;67.70;;;;;;4933056;29;20047;-63
2023/01/31 10:23:58;;;;;;;11.63;3.83;;;6.00;67.40;;;;;;4931038;29;20060;-61
2023/01/31 10:26:29;;;;;;;18.55;4.20;;;6.10;67.20;;;;;;4917466;29;20048;-62
2023/01/31 10:29:19;;;;;;;16.65;3.60;;;6.10;67.40;;;;;;4942754;29;20043;-63
2023/01/31 10:31:54;;;;;;;13.30;3.80;;;6.10;67.20;;;;;;4942192;29;20035;-62
2023/01/31 10:34:29;;;;;;;11.02;3.72;;;6.20;67.40;;;;;;4933809;29;20155;-61
2023/01/31 10:37:01;;;;;;;11.57;4.03;;;6.20;67.40;;;;;;4940678;29;20091;-63
2023/01/31 10:39:36;;;;;;;13.43;3.90;;;6.20;67.40;;;;;;4935990;28;20046;-64
2023/01/31 10:42:02;;;;;;;12.68;3.10;;;6.30;67.20;;;;;;4997387;28;20030;-62
2023/01/31 10:44:41;;;;;;;15.52;3.70;;;6.40;67.50;;;;;;4999720;28;20037;-62
2023/01/31 10:47:15;;;;;;;9.07;2.83;;;6.50;67.20;;;;;;4994050;28;20105;-63
2023/01/31 10:49:48;;;;;;;19.20;4.25;;;6.60;66.70;;;;;;4996370;28;20030;-64
2023/01/31 10:52:35;;;;;;;12.80;3.58;;;6.60;66.10;;;;;;5004582;28;20034;-61
2023/01/31 10:55:20;;;;;;;12.80;3.30;;;6.70;65.70;;;;;;4996516;28;20101;-62
2023/01/31 10:57:46;;;;;;;12.57;3.17;;;6.80;65.80;;;;;;4983803;28;20069;-64
2023/01/31 11:00:32;;;;;;;11.35;3.00;;;6.90;65.60;;;;;;5001418;28;20109;-62
2023/01/31 11:02:58;;;;;;;15.90;2.50;;;6.90;64.90;;;;;;5000471;28;20027;-63
2023/01/31 11:05:27;;;;;;;9.82;2.90;;;6.90;65.10;;;;;;5000879;28;20030;-64
2023/01/31 11:07:59;;;;;;;15.38;3.53;;;7.00;65.00;;;;;;4997678;28;20351;-62
2023/01/31 11:10:28;;;;;;;15.18;3.85;;;7.00;64.50;;;;;;4976847;28;20026;-62
2023/01/31 11:13:00;;;;;;;12.07;3.90;;;7.10;64.60;;;;;;5000232;28;20018;-61
2023/01/31 11:15:28;;;;;;;10.93;3.65;;;7.10;64.60;;;;;;4991718;28;20052;-63
2023/01/31 11:18:01;;;;;;;15.60;3.00;;;7.20;64.60;;;;;;4980545;28;20030;-63
2023/01/31 11:20:32;;;;;;;11.13;3.25;;;7.30;64.00;;;;;;4996646;28;20018;-63
2023/01/31 11:23:00;;;;;;;9.90;2.88;;;7.30;63.60;;;;;;4984372;28;20102;-61
2023/01/31 11:25:28;;;;;;;12.15;3.55;;;7.30;63.60;;;;;;5001957;28;20026;-63
2023/01/31 11:27:59;;;;;;;15.10;3.25;;;7.30;63.30;;;;;;4998331;28;20156;-61
2023/01/31 11:30:31;;;;;;;13.55;2.95;;;7.30;63.30;;;;;;4995939;28;20029;-63
2023/01/31 11:32:57;;;;;;;13.77;3.60;;;7.30;63.50;;;;;;4998409;28;20029;-61
2023/01/31 11:35:27;;;;;;;15.52;3.47;;;7.40;63.50;;;;;;4998688;28;20101;-63
2023/01/31 11:37:52;;;;;;;11.60;3.50;;;7.40;63.20;;;;;;5001106;28;20049;-63
2023/01/31 11:40:26;;;;;;;17.10;3.78;;;7.40;63.20;;;;;;4998155;28;20526;-63
2023/01/31 11:43:15;;;;;;;16.08;3.42;;;7.40;63.20;;;;;;4999083;28;20049;-62
2023/01/31 11:45:45;;;;;;;15.23;3.10;;;7.40;61.50;;;;;;4989388;28;20578;-61
2023/01/31 11:48:12;;;;;;;17.10;6.00;;;7.30;62.80;;;;;;4996680;28;20033;-62
2023/01/31 11:50:44;;;;;;;15.13;4.40;;;7.40;63.30;;;;;;4995729;28;20039;-62
2023/01/31 11:53:34;;;;;;;16.30;3.90;;;7.40;63.00;;;;;;4997885;28;20029;-61
2023/01/31 11:56:27;;;;;;;15.13;3.55;;;7.50;62.30;;;;;;4995277;28;20034;-63
2023/01/31 11:59:02;;;;;;;9.70;2.97;;;7.60;62.80;;;;;;4996470;28;20546;-62
2023/01/31 12:01:29;;;;;;;8.00;3.03;;;7.60;62.90;;;;;;5000435;28;20050;-62
2023/01/31 12:04:02;;;;;;;14.52;2.63;;;7.70;62.90;;;;;;5001802;28;20026;-62
2023/01/31 12:06:36;;;;;;;9.38;3.33;;;7.70;62.90;;;;;;4994019;28;20125;-63
2023/01/31 12:09:21;;;;;;;9.27;3.45;;;7.80;61.60;;;;;;4998335;28;20077;-64
2023/01/31 12:11:55;;;;;;;12.90;3.08;;;7.80;61.20;;;;;;4998616;28;20031;-64
2023/01/31 12:14:23;;;;;;;6.75;2.70;;;7.80;61.50;;;;;;4997939;28;20387;-64
2023/01/31 12:16:53;;;;;;;10.50;3.08;;;7.80;62.20;;;;;;5007204;28;20084;-62
2023/01/31 12:19:25;;;;;;;14.27;3.03;;;7.90;61.70;;;;;;5001603;28;20014;-61
2023/01/31 12:21:56;;;;;;;11.98;3.17;;;7.90;61.40;;;;;;4996744;28;20041;-64
2023/01/31 12:24:34;;;;;;;10.15;2.88;;;8.00;61.50;;;;;;5000269;28;20101;-64
2023/01/31 12:27:35;;;;;;;11.63;3.13;;;8.00;60.70;;;;;;4999850;28;20030;-61
2023/01/31 12:30:21;;;;;;;13.82;3.42;;;8.00;59.30;;;;;;5001255;28;20054;-63
2023/01/31 12:33:08;;;;;;;10.32;2.95;;;8.00;58.40;;;;;;5002584;28;20026;-61
2023/01/31 12:35:55;;;;;;;14.68;2.60;;;7.90;60.20;;;;;;4998959;28;20023;-62
2023/01/31 12:38:42;;;;;;;16.77;3.03;;;7.90;60.10;;;;;;5003439;28;20022;-63
2023/01/31 12:41:28;;;;;;;9.07;2.70;;;7.90;60.00;;;;;;4983208;28;20019;-64
2023/01/31 12:43:53;;;;;;;9.43;2.72;;;7.80;59.70;;;;;;4985361;28;20031;-63
2023/01/31 12:46:45;;;;;;;10.70;3.30;;;7.80;60.50;;;;;;4981920;28;20030;-63
2023/01/31 12:49:39;;;;;;;8.23;2.53;;;7.80;60.60;;;;;;4987856;28;20047;-63
2023/01/31 12:52:23;;;;;;;15.18;3.17;;;7.80;60.30;;;;;;4985672;28;20022;-63
2023/01/31 12:55:13;;;;;;;15.43;3.60;;;7.80;60.40;;;;;;4982713;28;20078;-63
2023/01/31 12:57:44;;;;;;;9.60;3.03;;;7.80;60.20;;;;;;4979852;28;20026;-63
2023/01/31 13:00:39;;;;;;;12.30;3.33;;;7.70;60.40;;;;;;4980662;28;20058;-64
2023/01/31 13:03:36;;;;;;;12.05;3.35;;;7.70;60.30;;;;;;4983762;28;20034;-63
2023/01/31 13:06:18;;;;;;;13.57;3.08;;;7.70;60.10;;;;;;4984026;28;20465;-63
2023/01/31 13:08:56;;;;;;;4.70;2.42;;;7.60;60.40;;;;;;4986021;28;20073;-63
2023/01/31 13:11:31;;;;;;;10.35;2.50;;;7.60;60.20;;;;;;4982139;28;20034;-63